PAJN

Juneau International Airport

Juneau, Alaska, USA
PAJN 182320Z 1900/1924 06005KT P6SM VCSH SCT040 OVC080 FM190300 VRB03KT 6SM -SN OVC040 TEMPO 1904/1908 3SM -SN OVC030
Issued Valid From Valid To
Jan-18 @ 23:20 UTC
(3 hours ago)
Jan-19 @ 00:00 UTC
(2 hours ago)
Jan-20 @ 00:00 UTC
(in 22 hours)
Jan-19 @ 00:00 to Jan-19 @ 03:00
PAJN 182320Z 1900/1924 06005KT P6SM VCSH SCT040 OVC080
Wind Visibility Clouds
60° at 5 knots Greater than 6 miles
  • Scattered at 4,000' AGL
  • Overcast at 8,000' AGL
From Jan-19 @ 03:00 to Jan-20 @ 00:00
FM190300 VRB03KT 6SM -SN OVC040
Wind Visibility Clouds Conditions
Variable at 3 knots 6 miles
  • Overcast at 4,000' AGL
  • Light Snow
Temporary Jan-19 @ 04:00 to Jan-19 @ 08:00
TEMPO 1904/1908 3SM -SN OVC030
Visibility Clouds Conditions
3 miles
  • Overcast at 3,000' AGL
  • Light Snow
PAJN 182320Z 1900/1924 06005KT P6SM VCSH SCT040 OVC080 FM190300 VRB03KT 6SM -SN OVC040 TEMPO 1904/1908 3SM -SN OVC030
Issued Jan-18 @ 23:20 UTC
(3 hours ago)
Valid From Jan-19 @ 00:00 UTC
(2 hours ago)
Valid To Jan-20 @ 00:00 UTC
(in 22 hours)
Jan-19 @ 00:00 - Jan-19 @ 03:00
Wind Visibility
60° at 5 knots Greater than 6 miles
Clouds
  • Scattered at 4,000' AGL
  • Overcast at 8,000' AGL
From Jan-19 @ 03:00 - Jan-20 @ 00:00
Wind Visibility
Variable at 3 knots 6 miles
Clouds
  • Overcast at 4,000' AGL
Conditions
  • Light Snow
Temporary Jan-19 @ 04:00 - Jan-19 @ 08:00
Clouds
  • Overcast at 3,000' AGL
Conditions
  • Light Snow